KALW/ALW METAR and TAF weather

Enter ICAO airport designator
Station Type Date Time Source
KALW METAR 2020/02/20 22:53 UTC NOAA

KALW 202253Z VRB03KT 10SM CLR 08/M02 A3031 RMK AO2 SLP273 T00831017


Station Type Date Time Source
KALW Decoded METAR 2020/02/20 22:53 UTC NOAA

WALLA WALLA REGIONAL AIRPORT, WA, United States (KALW) 46-06N 118-17W 363M
Feb 20, 2020 - 05:53 PM EST / 2020.02.20 2253 UTC
Wind: Variable at 3 MPH (3 KT):0
Visibility: 10 mile(s):0
Sky conditions: clear
Temperature: 46.9 F (8.3 C)
Dew Point: 28.9 F (-1.7 C)
Relative Humidity: 49%
Pressure (altimeter): 30.31 in. Hg (1026 hPa)
ob: KALW 202253Z VRB03KT 10SM CLR 08/M02 A3031 RMK AO2 SLP273 T00831017
cycle: 23

Station Type Date Time Source
KALW TAF 2020/02/20 18:24 UTC NOAA

TAF KALW 201722Z 2018/2118 15006KT P6SM BKN200

Example: see airport list